Time;durP1;ratioP1;P1;durP2;ratioP2;P2;SDS_P1;SDS_P2;PMS_P1;PMS_P2;Temp;Humidity;BMP_temperature;BMP_pressure;BME280_temperature;BME280_humidity;BME280_pressure;Samples;Min_cycle;Max_cycle;Signal;HPM_P1;HPM_P2
2021/07/23 00:01:40;;;;;;;3.80;2.95;;;;;;;;;;5007774;28;20065;-76
2021/07/23 00:04:06;;;;;;;4.63;2.95;;;;;;;;;;5013209;28;20065;-75
2021/07/23 00:06:33;;;;;;;7.90;3.80;;;;;;;;;;4999767;28;20050;-76
2021/07/23 00:08:59;;;;;;;3.97;2.90;;;;;;;;;;5012203;28;20061;-77
2021/07/23 00:11:25;;;;;;;5.75;2.80;;;;;;;;;;5009614;28;20057;-76
2021/07/23 00:13:52;;;;;;;5.55;3.17;;;;;;;;;;5007623;28;20076;-76
2021/07/23 00:16:18;;;;;;;6.07;3.13;;;;;;;;;;4994819;28;20058;-76
2021/07/23 00:18:45;;;;;;;6.05;3.17;;;;;;;;;;5006556;28;20088;-74
2021/07/23 00:21:11;;;;;;;4.95;2.80;;;;;;;;;;5005757;28;20065;-76
2021/07/23 00:23:37;;;;;;;4.13;3.03;;;;;;;;;;5014605;28;20072;-75
2021/07/23 00:26:09;;;;;;;5.28;3.42;;;;;;;;;;4989490;28;20049;-75
2021/07/23 00:28:36;;;;;;;5.28;3.22;;;;;;;;;;5004240;28;20066;-76
2021/07/23 00:31:02;;;;;;;5.03;3.25;;;;;;;;;;5002240;28;20119;-76
2021/07/23 00:33:28;;;;;;;4.97;3.10;;;;;;;;;;5004715;28;20128;-75
2021/07/23 00:35:55;;;;;;;5.25;2.88;;;;;;;;;;5005200;28;20049;-76
2021/07/23 00:38:21;;;;;;;5.22;3.10;;;;;;;;;;5006558;28;20076;-76
2021/07/23 00:40:47;;;;;;;5.32;3.00;;;;;;;;;;5007409;28;20116;-75
2021/07/23 00:43:14;;;;;;;5.30;3.17;;;;;;;;;;4999693;28;20057;-75
2021/07/23 00:45:40;;;;;;;5.95;2.90;;;;;;;;;;5006594;28;20070;-75
2021/07/23 00:48:07;;;;;;;6.68;3.13;;;;;;;;;;5002049;28;20062;-75
2021/07/23 00:50:33;;;;;;;3.95;2.97;;;;;;;;;;5014628;28;20087;-76
2021/07/23 00:53:00;;;;;;;4.45;3.20;;;;;;;;;;5009116;28;20084;-77
2021/07/23 00:55:27;;;;;;;6.50;3.30;;;;;;;;;;5006376;28;20062;-76
2021/07/23 00:57:55;;;;;;;5.13;3.10;;;;;;;;;;5004342;28;20061;-76
2021/07/23 01:00:21;;;;;;;5.43;3.20;;;;;;;;;;4982771;28;20065;-76
2021/07/23 01:02:48;;;;;;;4.72;2.83;;;;;;;;;;5001728;28;20506;-76
2021/07/23 01:05:15;;;;;;;5.25;2.97;;;;;;;;;;5014035;28;20061;-76
2021/07/23 01:07:41;;;;;;;3.90;3.10;;;;;;;;;;5011302;28;20068;-76
2021/07/23 01:10:08;;;;;;;5.00;3.20;;;;;;;;;;5009391;28;20953;-77
2021/07/23 01:12:35;;;;;;;6.30;3.22;;;;;;;;;;5012420;28;20068;-76
2021/07/23 01:15:01;;;;;;;5.75;3.10;;;;;;;;;;5011578;28;20631;-77
2021/07/23 01:17:28;;;;;;;4.95;3.10;;;;;;;;;;5015392;28;20050;-76
2021/07/23 01:20:03;;;;;;;6.95;3.50;;;;;;;;;;5002989;28;20046;-76
2021/07/23 01:22:30;;;;;;;4.55;2.88;;;;;;;;;;5007852;28;21634;-76
2021/07/23 01:24:57;;;;;;;5.03;3.20;;;;;;;;;;4988766;28;20120;-76
2021/07/23 01:27:26;;;;;;;4.55;3.38;;;;;;;;;;5008865;28;20061;-75
2021/07/23 01:29:57;;;;;;;5.40;2.88;;;;;;;;;;5012879;28;20525;-75
2021/07/23 01:32:24;;;;;;;6.43;3.10;;;;;;;;;;5013623;28;20112;-75
2021/07/23 01:34:50;;;;;;;3.75;2.80;;;;;;;;;;5004823;28;20061;-75
2021/07/23 01:37:16;;;;;;;4.40;2.97;;;;;;;;;;5008158;28;20065;-75
2021/07/23 01:39:43;;;;;;;4.22;3.00;;;;;;;;;;5014931;28;20107;-76
2021/07/23 01:42:09;;;;;;;4.50;3.40;;;;;;;;;;4991214;28;20060;-76
2021/07/23 01:44:36;;;;;;;5.05;3.10;;;;;;;;;;4982665;28;20108;-76
2021/07/23 01:47:02;;;;;;;5.05;3.17;;;;;;;;;;4999442;28;20058;-76
2021/07/23 01:49:29;;;;;;;6.30;3.70;;;;;;;;;;5003102;28;20541;-76
2021/07/23 01:51:55;;;;;;;5.47;3.17;;;;;;;;;;5010795;28;20064;-76
2021/07/23 01:54:21;;;;;;;3.83;3.20;;;;;;;;;;5005305;28;20069;-75
2021/07/23 01:56:48;;;;;;;4.80;3.10;;;;;;;;;;5005705;28;20064;-76
2021/07/23 01:59:15;;;;;;;4.57;3.03;;;;;;;;;;5013430;28;20123;-76
2021/07/23 02:01:41;;;;;;;5.47;3.25;;;;;;;;;;5015182;28;20065;-76
2021/07/23 02:04:08;;;;;;;5.72;3.30;;;;;;;;;;5009023;28;20512;-77
2021/07/23 02:06:34;;;;;;;4.40;3.00;;;;;;;;;;5005205;28;20064;-76
2021/07/23 02:09:00;;;;;;;8.35;3.63;;;;;;;;;;5003694;28;20092;-77
2021/07/23 02:11:27;;;;;;;5.50;3.65;;;;;;;;;;5009588;28;20093;-76
2021/07/23 02:13:53;;;;;;;5.10;3.40;;;;;;;;;;5009272;28;20069;-76
2021/07/23 02:16:19;;;;;;;6.32;3.15;;;;;;;;;;5001741;28;20040;-76
2021/07/23 02:18:46;;;;;;;5.10;3.05;;;;;;;;;;5004576;28;20499;-76
2021/07/23 02:21:12;;;;;;;6.18;3.38;;;;;;;;;;4981469;28;20058;-76
2021/07/23 02:23:39;;;;;;;6.57;3.50;;;;;;;;;;5005680;28;20513;-76
2021/07/23 02:26:15;;;;;;;7.40;3.28;;;;;;;;;;5006219;28;20064;-76
2021/07/23 02:28:41;;;;;;;5.43;3.13;;;;;;;;;;4999146;28;20069;-76
2021/07/23 02:31:07;;;;;;;5.10;3.35;;;;;;;;;;5007468;28;20057;-77
2021/07/23 02:33:34;;;;;;;4.80;3.30;;;;;;;;;;5009029;28;20072;-76
2021/07/23 02:36:00;;;;;;;5.90;2.90;;;;;;;;;;5009074;28;20058;-77
2021/07/23 02:38:27;;;;;;;4.97;3.08;;;;;;;;;;5008330;28;20061;-76
2021/07/23 02:40:55;;;;;;;3.47;2.85;;;;;;;;;;4990156;28;20431;-76
2021/07/23 02:43:21;;;;;;;4.75;3.45;;;;;;;;;;4963180;28;20050;-76
2021/07/23 02:45:47;;;;;;;5.88;3.45;;;;;;;;;;4993896;28;20061;-76
2021/07/23 02:48:14;;;;;;;6.85;3.53;;;;;;;;;;5007720;28;20541;-76
2021/07/23 02:50:40;;;;;;;6.13;3.60;;;;;;;;;;5012021;28;20072;-76
2021/07/23 02:53:07;;;;;;;6.93;3.17;;;;;;;;;;5010163;28;20062;-76
2021/07/23 02:55:33;;;;;;;6.22;3.40;;;;;;;;;;4995092;28;20580;-76
2021/07/23 02:58:00;;;;;;;5.35;3.33;;;;;;;;;;4997808;28;20061;-78
2021/07/23 03:00:26;;;;;;;4.32;3.10;;;;;;;;;;5010448;28;20060;-76
2021/07/23 03:02:53;;;;;;;5.60;3.05;;;;;;;;;;4980787;28;20058;-76
2021/07/23 03:05:19;;;;;;;4.82;3.40;;;;;;;;;;4994705;28;20077;-76
2021/07/23 03:07:45;;;;;;;6.15;3.53;;;;;;;;;;5001677;28;20068;-76
2021/07/23 03:10:12;;;;;;;5.68;3.65;;;;;;;;;;4999397;28;20123;-77
2021/07/23 03:12:38;;;;;;;5.57;3.58;;;;;;;;;;5006623;28;20057;-76
2021/07/23 03:15:05;;;;;;;5.57;3.30;;;;;;;;;;5003890;28;20062;-76
2021/07/23 03:17:31;;;;;;;5.47;3.03;;;;;;;;;;5002899;28;20451;-76
2021/07/23 03:19:57;;;;;;;5.70;3.45;;;;;;;;;;5003369;28;20057;-76
2021/07/23 03:22:24;;;;;;;4.85;3.45;;;;;;;;;;5006681;28;20054;-76
2021/07/23 03:24:50;;;;;;;8.18;3.88;;;;;;;;;;5004921;28;20119;-76
2021/07/23 03:27:16;;;;;;;6.28;3.30;;;;;;;;;;5003712;28;20046;-76
2021/07/23 03:29:43;;;;;;;6.50;3.50;;;;;;;;;;4997046;28;20474;-76
2021/07/23 03:32:09;;;;;;;5.75;3.33;;;;;;;;;;5007321;28;20061;-77
2021/07/23 03:34:36;;;;;;;5.15;3.60;;;;;;;;;;5004133;28;20066;-76
2021/07/23 03:37:02;;;;;;;4.55;3.35;;;;;;;;;;4998874;28;20073;-77
2021/07/23 03:39:28;;;;;;;6.28;3.53;;;;;;;;;;5017607;28;20057;-76
2021/07/23 03:41:55;;;;;;;6.28;3.63;;;;;;;;;;5000160;28;20054;-76
2021/07/23 03:44:21;;;;;;;5.97;3.50;;;;;;;;;;5007628;28;20057;-76
2021/07/23 03:46:47;;;;;;;5.80;3.40;;;;;;;;;;5012229;28;20053;-76
2021/07/23 03:49:14;;;;;;;6.88;3.80;;;;;;;;;;5008708;28;20119;-76
2021/07/23 03:51:40;;;;;;;5.82;3.00;;;;;;;;;;5014107;28;20069;-76
2021/07/23 03:54:07;;;;;;;6.72;3.67;;;;;;;;;;4989288;28;20050;-76
2021/07/23 03:56:33;;;;;;;4.50;3.55;;;;;;;;;;4985046;28;20407;-76
2021/07/23 03:59:00;;;;;;;6.25;3.50;;;;;;;;;;5007314;28;20320;-76
2021/07/23 04:01:26;;;;;;;6.07;3.40;;;;;;;;;;4989972;28;20078;-76
2021/07/23 04:03:52;;;;;;;6.72;3.70;;;;;;;;;;4999966;28;20061;-76
2021/07/23 04:06:19;;;;;;;6.20;3.63;;;;;;;;;;5007425;28;20058;-76
2021/07/23 04:08:45;;;;;;;5.63;3.22;;;;;;;;;;5005496;28;20077;-76
2021/07/23 04:11:16;;;;;;;7.43;4.05;;;;;;;;;;5014966;28;20053;-76
2021/07/23 04:13:43;;;;;;;6.03;3.63;;;;;;;;;;4986374;28;20096;-76
2021/07/23 04:16:09;;;;;;;6.70;3.47;;;;;;;;;;5004840;28;20061;-76
2021/07/23 04:18:36;;;;;;;6.00;3.70;;;;;;;;;;5007249;28;20108;-76
2021/07/23 04:21:04;;;;;;;5.32;3.38;;;;;;;;;;5005040;28;20046;-76
2021/07/23 04:23:31;;;;;;;5.88;3.13;;;;;;;;;;5003842;28;20080;-75
2021/07/23 04:25:57;;;;;;;6.63;3.80;;;;;;;;;;5006441;28;20064;-75
2021/07/23 04:28:24;;;;;;;5.05;3.70;;;;;;;;;;5007343;28;20072;-75
2021/07/23 04:30:50;;;;;;;5.32;3.40;;;;;;;;;;5002930;28;20075;-76
2021/07/23 04:33:17;;;;;;;6.55;4.13;;;;;;;;;;5006002;28;20066;-76
2021/07/23 04:35:43;;;;;;;7.18;3.80;;;;;;;;;;5004117;28;20488;-77
2021/07/23 04:38:09;;;;;;;8.25;3.83;;;;;;;;;;5002138;28;20143;-75
2021/07/23 04:40:36;;;;;;;5.90;3.83;;;;;;;;;;4998485;28;20070;-76
2021/07/23 04:43:02;;;;;;;7.13;3.90;;;;;;;;;;5003664;28;20061;-76
2021/07/23 04:45:29;;;;;;;7.25;3.97;;;;;;;;;;5009241;28;20053;-76
2021/07/23 04:47:55;;;;;;;7.65;3.97;;;;;;;;;;5008467;28;20515;-76
2021/07/23 04:50:21;;;;;;;6.35;3.60;;;;;;;;;;4990696;28;20027;-76
2021/07/23 04:52:48;;;;;;;5.55;3.78;;;;;;;;;;4995831;28;20442;-76
2021/07/23 04:55:14;;;;;;;6.43;3.63;;;;;;;;;;5011790;28;20123;-76
2021/07/23 04:57:43;;;;;;;7.05;3.75;;;;;;;;;;4996578;28;20065;-75
2021/07/23 05:00:10;;;;;;;7.07;3.92;;;;;;;;;;5008000;28;20520;-75
2021/07/23 05:02:37;;;;;;;6.05;4.00;;;;;;;;;;5011203;28;20490;-75
2021/07/23 05:05:06;;;;;;;6.97;4.20;;;;;;;;;;5005845;28;20077;-76
2021/07/23 05:07:32;;;;;;;7.60;3.95;;;;;;;;;;5011357;28;20589;-76
2021/07/23 05:09:59;;;;;;;6.80;4.13;;;;;;;;;;5013361;28;20073;-75
2021/07/23 05:12:25;;;;;;;6.50;4.07;;;;;;;;;;5011338;28;20096;-75
2021/07/23 05:14:52;;;;;;;4.78;3.40;;;;;;;;;;5009255;28;20089;-75
2021/07/23 05:17:18;;;;;;;6.97;4.32;;;;;;;;;;4993395;28;20061;-76
2021/07/23 05:19:45;;;;;;;5.93;4.10;;;;;;;;;;5010883;28;20343;-75
2021/07/23 05:22:12;;;;;;;7.22;4.15;;;;;;;;;;5006141;28;20062;-76
2021/07/23 05:24:38;;;;;;;7.20;4.03;;;;;;;;;;5003091;28;20064;-75
2021/07/23 05:27:05;;;;;;;6.75;3.92;;;;;;;;;;5005234;28;20097;-75
2021/07/23 05:29:31;;;;;;;6.60;4.30;;;;;;;;;;4998372;28;20057;-75
2021/07/23 05:31:57;;;;;;;7.25;4.20;;;;;;;;;;5000151;28;20050;-76
2021/07/23 05:34:24;;;;;;;8.07;4.10;;;;;;;;;;5015913;28;20061;-75
2021/07/23 05:36:50;;;;;;;6.18;3.70;;;;;;;;;;5006307;28;20419;-76
2021/07/23 05:39:17;;;;;;;6.63;4.10;;;;;;;;;;5005984;28;20693;-76
2021/07/23 05:41:43;;;;;;;7.97;4.20;;;;;;;;;;5005970;28;20509;-76
2021/07/23 05:44:09;;;;;;;6.97;4.50;;;;;;;;;;5004266;28;20061;-76
2021/07/23 05:46:36;;;;;;;7.90;4.35;;;;;;;;;;5005665;28;20062;-76
2021/07/23 05:49:02;;;;;;;8.00;4.20;;;;;;;;;;5008516;28;20065;-76
2021/07/23 05:51:28;;;;;;;6.25;4.60;;;;;;;;;;5009883;28;20062;-75
2021/07/23 05:53:55;;;;;;;6.68;4.13;;;;;;;;;;4991883;28;20474;-75
2021/07/23 05:56:21;;;;;;;7.22;4.28;;;;;;;;;;5005344;28;20061;-75
2021/07/23 05:58:48;;;;;;;7.45;3.78;;;;;;;;;;5007078;28;20100;-75
2021/07/23 06:01:14;;;;;;;7.32;4.10;;;;;;;;;;5009357;28;20064;-76
2021/07/23 06:03:40;;;;;;;5.93;3.90;;;;;;;;;;5008717;28;20180;-76
2021/07/23 06:06:07;;;;;;;8.45;4.40;;;;;;;;;;4999684;28;20050;-77
2021/07/23 06:08:33;;;;;;;8.20;4.05;;;;;;;;;;4999181;28;20088;-75
2021/07/23 06:11:06;;;;;;;7.75;4.20;;;;;;;;;;5009200;28;20058;-75
2021/07/23 06:13:35;;;;;;;6.38;3.75;;;;;;;;;;4997990;28;20383;-75
2021/07/23 06:16:05;;;;;;;6.03;3.85;;;;;;;;;;5004847;28;20038;-76
2021/07/23 06:18:32;;;;;;;7.30;4.03;;;;;;;;;;5007171;28;20057;-76
2021/07/23 06:20:58;;;;;;;9.98;4.13;;;;;;;;;;5003494;28;20476;-76
2021/07/23 06:23:25;;;;;;;5.78;3.92;;;;;;;;;;5013609;28;20785;-76
2021/07/23 06:25:51;;;;;;;7.65;3.65;;;;;;;;;;5012597;28;20061;-76
2021/07/23 06:28:17;;;;;;;7.10;4.30;;;;;;;;;;4998383;28;20053;-76
2021/07/23 06:30:45;;;;;;;7.57;4.22;;;;;;;;;;5006055;28;20084;-76
2021/07/23 06:33:12;;;;;;;5.95;4.05;;;;;;;;;;5016112;28;20053;-76
2021/07/23 06:35:39;;;;;;;7.53;4.32;;;;;;;;;;5015472;28;20072;-76
2021/07/23 06:38:05;;;;;;;7.65;4.22;;;;;;;;;;5008745;28;20057;-76
2021/07/23 06:40:32;;;;;;;9.20;4.20;;;;;;;;;;5010329;28;20061;-76
2021/07/23 06:42:58;;;;;;;5.90;3.75;;;;;;;;;;4999322;28;20057;-76
2021/07/23 06:45:24;;;;;;;7.32;4.43;;;;;;;;;;5006040;28;20145;-75
2021/07/23 06:47:51;;;;;;;6.90;4.38;;;;;;;;;;5019586;28;20665;-76
2021/07/23 06:50:17;;;;;;;7.28;4.35;;;;;;;;;;5001559;28;20066;-76
2021/07/23 06:52:44;;;;;;;7.60;4.05;;;;;;;;;;5011592;28;20074;-75
2021/07/23 06:55:13;;;;;;;9.07;4.57;;;;;;;;;;5013784;28;20072;-75
2021/07/23 06:57:39;;;;;;;6.50;4.32;;;;;;;;;;5005192;28;20091;-75
2021/07/23 07:00:06;;;;;;;6.53;4.60;;;;;;;;;;5015836;28;20061;-76
2021/07/23 07:02:32;;;;;;;6.03;4.07;;;;;;;;;;5007460;28;20069;-76
2021/07/23 07:04:59;;;;;;;8.82;3.85;;;;;;;;;;4985578;28;20500;-76
2021/07/23 07:07:25;;;;;;;7.00;4.32;;;;;;;;;;5004789;28;20088;-77
2021/07/23 07:09:52;;;;;;;7.90;4.40;;;;;;;;;;5008880;28;20073;-75
2021/07/23 07:12:18;;;;;;;8.18;4.00;;;;;;;;;;5005295;28;20053;-76
2021/07/23 07:14:45;;;;;;;9.15;4.13;;;;;;;;;;4995733;28;20073;-76
2021/07/23 07:17:11;;;;;;;7.15;3.58;;;;;;;;;;5008286;28;20073;-75
2021/07/23 07:19:38;;;;;;;5.75;3.65;;;;;;;;;;5009393;28;20582;-77
2021/07/23 07:22:04;;;;;;;7.10;4.20;;;;;;;;;;5011084;28;20049;-77
2021/07/23 07:24:31;;;;;;;6.80;3.88;;;;;;;;;;4992039;28;20631;-77
2021/07/23 07:26:57;;;;;;;5.45;3.38;;;;;;;;;;5000356;28;20072;-76
2021/07/23 07:29:24;;;;;;;6.88;4.25;;;;;;;;;;5014797;28;20533;-75
2021/07/23 07:31:50;;;;;;;6.28;4.28;;;;;;;;;;4987074;28;20153;-75
2021/07/23 07:34:16;;;;;;;8.32;4.72;;;;;;;;;;5010729;28;20072;-75
2021/07/23 07:36:43;;;;;;;9.55;4.90;;;;;;;;;;5013812;28;20062;-76
2021/07/23 07:39:09;;;;;;;7.25;4.15;;;;;;;;;;5004706;28;20447;-76
2021/07/23 07:41:35;;;;;;;7.68;4.50;;;;;;;;;;5002246;28;20556;-76
2021/07/23 07:44:02;;;;;;;14.48;5.18;;;;;;;;;;5006735;28;20069;-76
2021/07/23 07:46:28;;;;;;;6.35;4.13;;;;;;;;;;5018369;28;20134;-76
2021/07/23 07:48:55;;;;;;;6.68;3.80;;;;;;;;;;4994368;28;20066;-76
2021/07/23 07:51:21;;;;;;;8.43;4.32;;;;;;;;;;4997111;28;20116;-75
2021/07/23 07:53:47;;;;;;;7.32;3.92;;;;;;;;;;5001567;28;20069;-76
2021/07/23 07:56:14;;;;;;;5.85;4.00;;;;;;;;;;5012538;28;20065;-75
2021/07/23 07:58:41;;;;;;;6.45;3.78;;;;;;;;;;5008366;28;20069;-76
2021/07/23 08:01:08;;;;;;;6.95;4.55;;;;;;;;;;5014120;28;20465;-76
2021/07/23 08:03:34;;;;;;;8.32;4.05;;;;;;;;;;5012366;28;20049;-77
2021/07/23 08:06:05;;;;;;;4.95;2.88;;;;;;;;;;5008798;28;20088;-77
2021/07/23 08:08:31;;;;;;;8.60;5.03;;;;;;;;;;4997126;28;20492;-77
2021/07/23 08:10:58;;;;;;;6.65;4.10;;;;;;;;;;5013050;28;20503;-77
2021/07/23 08:13:27;;;;;;;7.22;3.35;;;;;;;;;;5007919;28;20049;-76
2021/07/23 08:15:54;;;;;;;6.88;4.70;;;;;;;;;;5007824;28;20507;-77
2021/07/23 08:18:21;;;;;;;8.35;4.60;;;;;;;;;;5002541;28;21673;-74
2021/07/23 08:20:50;;;;;;;9.10;4.80;;;;;;;;;;5005716;28;20049;-76
2021/07/23 08:23:17;;;;;;;8.20;4.60;;;;;;;;;;4995320;28;20061;-76
2021/07/23 08:25:43;;;;;;;9.15;4.72;;;;;;;;;;5007408;28;20053;-75
2021/07/23 08:28:10;;;;;;;7.75;4.18;;;;;;;;;;4995994;28;20124;-76
2021/07/23 08:30:36;;;;;;;7.55;4.20;;;;;;;;;;5007154;28;20099;-75
2021/07/23 08:33:03;;;;;;;9.82;5.20;;;;;;;;;;5005161;28;20725;-76
2021/07/23 08:35:31;;;;;;;5.90;3.42;;;;;;;;;;4973807;28;20065;-75
2021/07/23 08:37:57;;;;;;;8.02;4.18;;;;;;;;;;4993586;28;20053;-77
2021/07/23 08:40:24;;;;;;;7.28;4.10;;;;;;;;;;5007216;28;20576;-75
2021/07/23 08:42:50;;;;;;;7.97;4.50;;;;;;;;;;5013425;28;20123;-76
2021/07/23 08:45:17;;;;;;;6.13;3.40;;;;;;;;;;5015506;28;20061;-76
2021/07/23 08:47:43;;;;;;;8.07;4.30;;;;;;;;;;5009321;28;20057;-75
2021/07/23 08:50:10;;;;;;;9.32;4.65;;;;;;;;;;5010511;28;20103;-76
2021/07/23 08:52:42;;;;;;;7.60;4.25;;;;;;;;;;4995303;28;20080;-75
2021/07/23 08:55:09;;;;;;;5.63;4.05;;;;;;;;;;5001539;28;20520;-76
2021/07/23 08:57:35;;;;;;;6.88;4.60;;;;;;;;;;5003010;28;20175;-75
2021/07/23 09:00:06;;;;;;;6.50;4.22;;;;;;;;;;4979025;28;20074;-76
2021/07/23 09:02:49;;;;;;;8.13;4.20;;;;;;;;;;4994979;28;20054;-76
2021/07/23 09:05:16;;;;;;;7.38;4.60;;;;;;;;;;5002117;28;20074;-76
2021/07/23 09:07:42;;;;;;;5.80;3.95;;;;;;;;;;5007476;28;20127;-77
2021/07/23 09:10:16;;;;;;;8.05;4.25;;;;;;;;;;5008187;28;20065;-77
2021/07/23 09:12:44;;;;;;;7.68;4.75;;;;;;;;;;4979471;28;20054;-76
2021/07/23 09:15:16;;;;;;;7.88;4.50;;;;;;;;;;4965664;28;20093;-76
2021/07/23 09:17:42;;;;;;;5.93;4.05;;;;;;;;;;5006775;28;20065;-76
2021/07/23 09:20:09;;;;;;;7.90;4.93;;;;;;;;;;5011075;28;20061;-76
2021/07/23 09:22:42;;;;;;;6.07;3.80;;;;;;;;;;5011015;28;20061;-75
2021/07/23 09:25:09;;;;;;;6.05;4.15;;;;;;;;;;5007184;28;20505;-76
2021/07/23 09:27:36;;;;;;;10.07;5.10;;;;;;;;;;5002727;28;20116;-75
2021/07/23 09:30:06;;;;;;;6.68;4.30;;;;;;;;;;5000850;28;20089;-76
2021/07/23 09:32:32;;;;;;;5.43;3.38;;;;;;;;;;5008961;28;20084;-76
2021/07/23 09:35:09;;;;;;;7.20;4.63;;;;;;;;;;5002153;28;20042;-76
2021/07/23 09:37:54;;;;;;;9.35;4.85;;;;;;;;;;5007472;28;20418;-76
2021/07/23 09:40:21;;;;;;;8.30;4.93;;;;;;;;;;5009983;28;20076;-76
2021/07/23 09:42:57;;;;;;;7.25;4.00;;;;;;;;;;4996288;28;20065;-76
2021/07/23 09:45:30;;;;;;;6.07;3.92;;;;;;;;;;4999515;28;20108;-76
2021/07/23 09:48:12;;;;;;;6.47;4.50;;;;;;;;;;5006474;28;20139;-76
2021/07/23 09:50:40;;;;;;;7.00;5.25;;;;;;;;;;5015349;28;22262;-75
2021/07/23 09:53:11;;;;;;;7.90;5.10;;;;;;;;;;5018487;28;20057;-75
2021/07/23 09:55:37;;;;;;;8.03;4.53;;;;;;;;;;5016871;28;20150;-77
2021/07/23 09:58:07;;;;;;;8.27;4.40;;;;;;;;;;5008168;28;21057;-76
2021/07/23 10:00:36;;;;;;;7.05;4.63;;;;;;;;;;5008066;28;20591;-76
2021/07/23 10:03:05;;;;;;;9.18;5.07;;;;;;;;;;5009565;28;20034;-77
2021/07/23 10:05:37;;;;;;;7.20;4.63;;;;;;;;;;5008335;28;20088;-76
2021/07/23 10:08:08;;;;;;;9.05;5.30;;;;;;;;;;4996684;28;20135;-76
2021/07/23 10:10:38;;;;;;;5.95;4.13;;;;;;;;;;5004577;28;20053;-76
2021/07/23 10:13:07;;;;;;;9.90;5.30;;;;;;;;;;5005713;28;20049;-76
2021/07/23 10:15:35;;;;;;;6.80;4.65;;;;;;;;;;5005950;28;20069;-76
2021/07/23 10:18:02;;;;;;;8.02;4.57;;;;;;;;;;5001867;28;20057;-78
2021/07/23 10:20:30;;;;;;;7.68;4.70;;;;;;;;;;4993921;28;20053;-77
2021/07/23 10:22:57;;;;;;;6.93;4.60;;;;;;;;;;4994804;28;20489;-75
2021/07/23 10:25:27;;;;;;;8.88;4.90;;;;;;;;;;4984698;28;20118;-76
2021/07/23 10:27:53;;;;;;;6.50;4.07;;;;;;;;;;5006962;28;20112;-77
2021/07/23 10:30:46;;;;;;;5.95;4.28;;;;;;;;;;5010348;28;20574;-76
2021/07/23 10:33:32;;;;;;;7.75;4.30;;;;;;;;;;5001773;28;20120;-76
2021/07/23 10:35:58;;;;;;;6.85;3.72;;;;;;;;;;5009447;28;20078;-76
2021/07/23 10:38:25;;;;;;;9.10;5.43;;;;;;;;;;5008107;28;20056;-75
2021/07/23 10:41:10;;;;;;;6.88;4.60;;;;;;;;;;5003331;28;20037;-76
2021/07/23 10:43:37;;;;;;;8.27;4.57;;;;;;;;;;5002270;28;21407;-76
2021/07/23 10:46:04;;;;;;;6.75;3.97;;;;;;;;;;5012847;28;20066;-76
2021/07/23 10:48:46;;;;;;;7.05;4.30;;;;;;;;;;5010973;28;20084;-76
2021/07/23 10:51:31;;;;;;;8.13;4.68;;;;;;;;;;5008885;28;20062;-77
2021/07/23 10:54:03;;;;;;;6.10;4.05;;;;;;;;;;5007208;28;20119;-75
2021/07/23 10:57:09;;;;;;;7.15;4.35;;;;;;;;;;4999915;28;20050;-76
2021/07/23 10:59:48;;;;;;;8.15;4.82;;;;;;;;;;4923794;29;20353;-76
2021/07/23 11:02:14;;;;;;;7.70;4.60;;;;;;;;;;4922980;29;20862;-76
2021/07/23 11:04:44;;;;;;;8.25;4.78;;;;;;;;;;4958762;28;20717;-76
2021/07/23 11:07:11;;;;;;;8.57;4.85;;;;;;;;;;4989082;28;20085;-76
2021/07/23 11:09:38;;;;;;;6.22;4.50;;;;;;;;;;5003807;28;20092;-76
2021/07/23 11:12:16;;;;;;;7.60;4.10;;;;;;;;;;5007889;28;20107;-75
2021/07/23 11:14:43;;;;;;;6.50;4.45;;;;;;;;;;4993348;28;20529;-75
2021/07/23 11:17:10;;;;;;;9.25;4.78;;;;;;;;;;5007673;28;20054;-76
2021/07/23 11:19:36;;;;;;;7.55;5.07;;;;;;;;;;5003156;28;20054;-76
2021/07/23 11:22:03;;;;;;;7.60;4.30;;;;;;;;;;5008134;28;20119;-76
2021/07/23 11:24:36;;;;;;;8.75;4.70;;;;;;;;;;4995494;28;20089;-75
2021/07/23 11:27:02;;;;;;;9.20;4.88;;;;;;;;;;5007118;28;20069;-77
2021/07/23 11:29:30;;;;;;;7.95;4.15;;;;;;;;;;5009227;28;20046;-76
2021/07/23 11:32:04;;;;;;;6.15;4.00;;;;;;;;;;5009414;28;20704;-76
2021/07/23 11:34:36;;;;;;;7.38;4.53;;;;;;;;;;5005091;28;21292;-76
2021/07/23 11:37:12;;;;;;;9.02;4.10;;;;;;;;;;5010307;28;20061;-77
2021/07/23 11:39:50;;;;;;;7.63;5.30;;;;;;;;;;5003252;28;20053;-75
2021/07/23 11:42:16;;;;;;;9.98;4.55;;;;;;;;;;5011584;28;20470;-75
2021/07/23 11:44:53;;;;;;;9.88;4.78;;;;;;;;;;5009489;28;20560;-75
2021/07/23 11:47:45;;;;;;;9.40;4.50;;;;;;;;;;5014751;28;20048;-75
2021/07/23 11:50:16;;;;;;;8.70;4.97;;;;;;;;;;5002225;28;20058;-76
2021/07/23 11:52:43;;;;;;;8.38;4.45;;;;;;;;;;5010465;28;20586;-75
2021/07/23 11:55:10;;;;;;;8.45;3.83;;;;;;;;;;5008778;28;20074;-75
2021/07/23 11:57:39;;;;;;;7.55;4.47;;;;;;;;;;5015752;28;20073;-75
2021/07/23 12:00:06;;;;;;;6.30;3.92;;;;;;;;;;5010945;28;20062;-76
2021/07/23 12:02:32;;;;;;;8.60;4.60;;;;;;;;;;4996996;28;20046;-76
2021/07/23 12:05:09;;;;;;;5.53;4.03;;;;;;;;;;5009915;28;20103;-75
2021/07/23 12:07:36;;;;;;;9.13;4.85;;;;;;;;;;4999193;28;20292;-76
2021/07/23 12:10:04;;;;;;;4.97;3.55;;;;;;;;;;5007829;28;20046;-76
2021/07/23 12:12:30;;;;;;;6.60;4.70;;;;;;;;;;5002249;28;20058;-76
2021/07/23 12:15:06;;;;;;;8.27;4.78;;;;;;;;;;5000683;28;20490;-76
2021/07/23 12:17:34;;;;;;;6.82;4.05;;;;;;;;;;5000974;28;20053;-76
2021/07/23 12:20:00;;;;;;;8.35;4.75;;;;;;;;;;4988577;28;20046;-75
2021/07/23 12:22:27;;;;;;;7.88;4.55;;;;;;;;;;5001898;28;20049;-75
2021/07/23 12:24:53;;;;;;;8.45;4.75;;;;;;;;;;5012525;28;20092;-76
2021/07/23 12:27:24;;;;;;;8.23;4.70;;;;;;;;;;5027755;28;20044;-76
2021/07/23 12:29:53;;;;;;;7.43;4.00;;;;;;;;;;5024067;28;20262;-76
2021/07/23 12:32:26;;;;;;;8.63;4.40;;;;;;;;;;5023557;28;20417;-76
2021/07/23 12:34:56;;;;;;;6.47;4.47;;;;;;;;;;5020704;28;20042;-76
2021/07/23 12:37:23;;;;;;;5.95;3.63;;;;;;;;;;5005058;28;20038;-76
2021/07/23 12:39:56;;;;;;;6.70;3.65;;;;;;;;;;4990376;28;20034;-75
2021/07/23 12:42:23;;;;;;;6.80;4.22;;;;;;;;;;5005545;28;20143;-75
2021/07/23 12:44:50;;;;;;;8.13;3.97;;;;;;;;;;5013026;28;20057;-77
2021/07/23 12:47:20;;;;;;;5.72;3.45;;;;;;;;;;5013026;28;20065;-76
2021/07/23 12:49:47;;;;;;;9.07;5.13;;;;;;;;;;5009673;28;20516;-75
2021/07/23 12:52:14;;;;;;;6.93;4.70;;;;;;;;;;5004057;28;20512;-75
2021/07/23 12:54:42;;;;;;;5.07;3.50;;;;;;;;;;5005856;28;20100;-76
2021/07/23 12:57:31;;;;;;;7.50;4.18;;;;;;;;;;5005440;28;20435;-76
2021/07/23 13:00:16;;;;;;;7.25;4.38;;;;;;;;;;4995669;28;20030;-76
2021/07/23 13:02:46;;;;;;;5.90;4.00;;;;;;;;;;4994138;28;22117;-77
2021/07/23 13:05:15;;;;;;;6.00;4.20;;;;;;;;;;5011091;28;20062;-77
2021/07/23 13:07:43;;;;;;;7.63;4.60;;;;;;;;;;4998656;28;20084;-76
2021/07/23 13:10:16;;;;;;;7.40;3.72;;;;;;;;;;5011722;28;20072;-79
2021/07/23 13:12:45;;;;;;;6.65;4.22;;;;;;;;;;5007565;28;20061;-75
2021/07/23 13:15:12;;;;;;;7.18;3.50;;;;;;;;;;5009336;28;20066;-76
2021/07/23 13:17:38;;;;;;;6.85;3.70;;;;;;;;;;5007739;28;20666;-75
2021/07/23 13:20:07;;;;;;;8.68;4.40;;;;;;;;;;5011200;28;20068;-76
2021/07/23 13:22:34;;;;;;;6.38;3.90;;;;;;;;;;5006122;28;20200;-75
2021/07/23 13:25:08;;;;;;;7.00;4.50;;;;;;;;;;5002932;28;20038;-76
2021/07/23 13:27:34;;;;;;;8.93;4.28;;;;;;;;;;5002848;28;20307;-76
2021/07/23 13:30:01;;;;;;;7.80;3.92;;;;;;;;;;5006813;28;20061;-76
2021/07/23 13:32:27;;;;;;;7.13;3.80;;;;;;;;;;5011625;28;20062;-75
2021/07/23 13:34:54;;;;;;;5.78;3.90;;;;;;;;;;5014724;28;20653;-76
2021/07/23 13:37:25;;;;;;;6.85;4.25;;;;;;;;;;5010321;28;20513;-75
2021/07/23 13:39:54;;;;;;;5.28;3.78;;;;;;;;;;4996950;28;20062;-75
2021/07/23 13:42:21;;;;;;;8.60;4.47;;;;;;;;;;5002018;28;20049;-76
2021/07/23 13:44:47;;;;;;;6.53;3.88;;;;;;;;;;5008308;28;20809;-76
2021/07/23 13:47:14;;;;;;;6.25;3.78;;;;;;;;;;5012476;28;20045;-75
2021/07/23 13:49:40;;;;;;;5.78;3.78;;;;;;;;;;4988872;28;20062;-76
2021/07/23 13:52:07;;;;;;;6.85;4.25;;;;;;;;;;4998332;28;20054;-76
2021/07/23 13:54:33;;;;;;;9.35;4.35;;;;;;;;;;5006162;28;20087;-76
2021/07/23 13:57:00;;;;;;;4.60;3.53;;;;;;;;;;5005794;28;20682;-76
2021/07/23 13:59:26;;;;;;;6.57;4.32;;;;;;;;;;4967409;28;20069;-76
2021/07/23 14:01:54;;;;;;;7.22;4.32;;;;;;;;;;5000524;28;20096;-76
2021/07/23 14:04:21;;;;;;;6.85;4.10;;;;;;;;;;4995209;28;20069;-76
2021/07/23 14:06:47;;;;;;;5.57;4.32;;;;;;;;;;4997905;28;20046;-75
2021/07/23 14:09:13;;;;;;;6.03;4.10;;;;;;;;;;5006167;28;20081;-77
2021/07/23 14:11:43;;;;;;;6.07;4.07;;;;;;;;;;5010777;28;20497;-75
2021/07/23 14:14:09;;;;;;;6.57;4.03;;;;;;;;;;5002035;28;20091;-75
2021/07/23 14:16:36;;;;;;;7.93;4.15;;;;;;;;;;5008353;28;20485;-76
2021/07/23 14:19:03;;;;;;;6.65;3.90;;;;;;;;;;4988027;28;20120;-77
2021/07/23 14:21:29;;;;;;;6.93;4.05;;;;;;;;;;5008791;28;20135;-76
2021/07/23 14:23:55;;;;;;;7.28;4.25;;;;;;;;;;5016234;28;20065;-75
2021/07/23 14:26:22;;;;;;;7.38;4.43;;;;;;;;;;4992089;28;20093;-75
2021/07/23 14:28:48;;;;;;;6.85;4.40;;;;;;;;;;5006098;28;20057;-75
2021/07/23 14:31:18;;;;;;;5.78;4.35;;;;;;;;;;5012560;28;20054;-76
2021/07/23 14:33:45;;;;;;;9.18;4.30;;;;;;;;;;5006583;28;20485;-77
2021/07/23 14:36:11;;;;;;;7.13;4.47;;;;;;;;;;5005951;28;20477;-77
2021/07/23 14:38:39;;;;;;;7.50;4.60;;;;;;;;;;4997183;28;20550;-75
2021/07/23 14:41:05;;;;;;;5.93;4.40;;;;;;;;;;5012031;28;20552;-76
2021/07/23 14:43:32;;;;;;;7.32;3.72;;;;;;;;;;5007468;28;20085;-77
2021/07/23 14:45:58;;;;;;;7.50;4.63;;;;;;;;;;5019580;28;20058;-77
2021/07/23 14:48:25;;;;;;;6.25;3.80;;;;;;;;;;4998006;28;20057;-75